createdAt,value
2019-01-10T00:02:52.881Z,1.67
2019-01-10T00:05:39.262Z,1.60
2019-01-10T00:08:06.192Z,1.80
2019-01-10T00:10:32.931Z,1.40
2019-01-10T00:12:59.699Z,1.50
2019-01-10T00:15:26.727Z,1.60
2019-01-10T00:17:53.647Z,1.53
2019-01-10T00:20:20.398Z,1.77
2019-01-10T00:22:47.309Z,1.60
2019-01-10T00:25:14.440Z,1.53
2019-01-10T00:27:41.610Z,1.40
2019-01-10T00:30:27.931Z,1.53
2019-01-10T00:32:54.656Z,1.50
2019-01-10T00:35:21.386Z,1.40
2019-01-10T00:37:48.680Z,1.60
2019-01-10T00:40:28.513Z,1.30
2019-01-10T00:42:55.348Z,1.40
2019-01-10T00:45:22.106Z,1.20
2019-01-10T00:47:49.231Z,1.20
2019-01-10T00:50:18.454Z,1.40
2019-01-10T00:52:45.310Z,1.47
2019-01-10T00:55:12.767Z,1.17
2019-01-10T00:57:40.025Z,1.43
2019-01-10T01:00:10.346Z,1.43
2019-01-10T01:02:37.539Z,1.63
2019-01-10T01:05:06.477Z,1.50
2019-01-10T01:07:33.343Z,1.40
2019-01-10T01:10:00.268Z,1.60
2019-01-10T01:12:27.139Z,1.30
2019-01-10T01:14:54.008Z,1.50
2019-01-10T01:17:21.015Z,1.70
2019-01-10T01:19:48.008Z,1.87
2019-01-10T01:22:15.244Z,1.30
2019-01-10T01:24:42.526Z,1.57
2019-01-10T01:27:09.335Z,1.30
2019-01-10T01:29:36.084Z,1.30
2019-01-10T01:32:02.928Z,1.30
2019-01-10T01:34:29.919Z,1.53
2019-01-10T01:36:56.987Z,1.40
2019-01-10T01:39:23.847Z,1.53
2019-01-10T01:42:03.359Z,1.50
2019-01-10T01:44:30.373Z,1.57
2019-01-10T01:46:57.381Z,1.40
2019-01-10T01:49:24.163Z,1.30
2019-01-10T01:51:51.000Z,1.47
2019-01-10T01:54:17.731Z,1.20
2019-01-10T01:56:44.619Z,1.33
2019-01-10T01:59:11.385Z,1.43
2019-01-10T02:01:38.117Z,1.43
2019-01-10T02:04:04.920Z,1.57
2019-01-10T02:06:31.809Z,1.70
2019-01-10T02:08:58.557Z,1.60
2019-01-10T02:11:25.854Z,1.57
2019-01-10T02:13:52.597Z,1.50
2019-01-10T02:16:19.836Z,1.57
2019-01-10T02:18:46.794Z,2.07
2019-01-10T02:21:13.803Z,1.80
2019-01-10T02:23:40.532Z,1.97
2019-01-10T02:26:07.442Z,1.97
2019-01-10T02:28:34.175Z,2.23
2019-01-10T02:31:00.998Z,2.03
2019-01-10T02:33:27.682Z,1.80
2019-01-10T02:35:54.524Z,2.20
2019-01-10T02:38:21.244Z,2.07
2019-01-10T02:41:07.683Z,2.27
2019-01-10T02:43:34.501Z,2.10
2019-01-10T02:46:01.344Z,2.00
2019-01-10T02:48:28.461Z,1.90
2019-01-10T02:50:55.316Z,2.10
2019-01-10T02:53:22.174Z,2.20
2019-01-10T02:55:49.269Z,2.00
2019-01-10T02:58:16.418Z,1.83
2019-01-10T03:00:43.256Z,2.03
2019-01-10T03:03:10.195Z,2.40
2019-01-10T03:05:37.181Z,2.27
2019-01-10T03:08:04.040Z,1.87
2019-01-10T03:10:31.013Z,1.90
2019-01-10T03:12:57.786Z,2.27
2019-01-10T03:15:24.560Z,1.97
2019-01-10T03:20:25.171Z,1.90
2019-01-10T03:22:52.390Z,2.20
2019-01-10T03:25:19.222Z,2.03
2019-01-10T03:27:46.049Z,1.73
2019-01-10T03:30:14.933Z,1.93
2019-01-10T03:32:41.954Z,2.17
2019-01-10T03:35:09.337Z,1.80
2019-01-10T03:37:36.834Z,2.30
2019-01-10T03:40:05.817Z,1.57
2019-01-10T03:42:32.554Z,1.67
2019-01-10T03:44:59.738Z,2.17
2019-01-10T03:47:26.625Z,1.90
2019-01-10T03:49:53.360Z,1.57
2019-01-10T03:52:20.091Z,1.80
2019-01-10T03:54:46.947Z,1.50
2019-01-10T03:57:13.675Z,1.67
2019-01-10T03:59:40.415Z,1.53
2019-01-10T04:02:27.156Z,1.63
2019-01-10T04:04:53.913Z,1.80
2019-01-10T04:07:20.654Z,1.73
2019-01-10T04:09:47.569Z,1.60
2019-01-10T04:12:14.452Z,1.60
2019-01-10T04:14:41.286Z,1.50
2019-01-10T04:17:08.283Z,1.67
2019-01-10T04:19:35.165Z,2.00
2019-01-10T04:22:02.030Z,1.53
2019-01-10T04:24:28.962Z,1.50
2019-01-10T04:26:55.718Z,1.53
2019-01-10T04:29:22.470Z,1.43
2019-01-10T04:31:49.405Z,1.70
2019-01-10T04:34:16.255Z,1.50
2019-01-10T04:36:43.392Z,1.40
2019-01-10T04:39:10.327Z,1.50
2019-01-10T04:41:37.461Z,1.40
2019-01-10T04:44:07.189Z,1.37
2019-01-10T04:46:33.088Z,1.87
2019-01-10T04:48:59.739Z,1.80
2019-01-10T04:51:27.130Z,1.50
2019-01-10T04:53:54.206Z,1.50
2019-01-10T04:56:20.946Z,1.57
2019-01-10T04:58:47.829Z,1.60
2019-01-10T05:01:14.723Z,1.80
2019-01-10T05:03:41.449Z,1.50
2019-01-10T05:06:08.291Z,1.87
2019-01-10T05:08:35.081Z,1.53
2019-01-10T05:11:01.898Z,1.43
2019-01-10T05:13:28.660Z,1.80
2019-01-10T05:15:55.835Z,2.37
2019-01-10T05:18:22.693Z,1.73
2019-01-10T05:21:09.572Z,1.80
2019-01-10T05:23:36.553Z,1.90
2019-01-10T05:26:03.429Z,1.57
2019-01-10T05:28:30.662Z,1.83
2019-01-10T05:30:57.905Z,2.10
2019-01-10T05:33:25.034Z,2.00
2019-01-10T05:35:51.950Z,1.87
2019-01-10T05:38:18.837Z,1.90
2019-01-10T05:40:45.819Z,1.90
2019-01-10T05:43:12.754Z,2.30
2019-01-10T05:45:39.770Z,2.30
2019-01-10T05:48:06.630Z,2.23
2019-01-10T05:50:33.674Z,2.97
2019-01-10T05:53:00.913Z,2.57
2019-01-10T05:55:27.763Z,2.30
2019-01-10T05:57:54.692Z,2.70
2019-01-10T06:00:24.079Z,2.60
2019-01-10T06:02:51.058Z,2.80
2019-01-10T06:05:18.404Z,2.53
2019-01-10T06:07:45.257Z,2.77
2019-01-10T06:10:32.029Z,2.77
2019-01-10T06:12:59.155Z,2.83
2019-01-10T06:15:26.175Z,2.53
2019-01-10T06:17:53.366Z,2.97
2019-01-10T06:20:20.878Z,2.70
2019-01-10T06:22:47.737Z,2.60
2019-01-10T06:25:14.852Z,2.50
2019-01-10T06:27:42.007Z,2.73
2019-01-10T06:30:11.045Z,2.53
2019-01-10T06:32:37.949Z,2.67
2019-01-10T06:35:04.854Z,2.30
2019-01-10T06:37:31.664Z,2.70
2019-01-10T06:39:58.490Z,2.47
2019-01-10T06:42:25.351Z,2.87
2019-01-10T06:44:52.117Z,2.57
2019-01-10T06:47:19.470Z,2.70
2019-01-10T06:49:46.468Z,2.40
2019-01-10T06:52:13.629Z,2.40
2019-01-10T06:54:40.466Z,2.03
2019-01-10T06:57:07.709Z,2.63
2019-01-10T06:59:34.565Z,2.53
2019-01-10T07:02:01.937Z,2.70
2019-01-10T07:04:48.192Z,3.03
2019-01-10T07:07:15.071Z,2.23
2019-01-10T07:09:41.932Z,2.17
2019-01-10T07:12:08.695Z,3.80
2019-01-10T07:14:35.710Z,2.77
2019-01-10T07:17:02.552Z,4.13
2019-01-10T07:19:49.247Z,2.67
2019-01-10T07:22:17.151Z,2.50
2019-01-10T07:25:03.967Z,2.37
2019-01-10T07:27:30.991Z,2.50
2019-01-10T07:29:59.547Z,2.67
2019-01-10T07:32:26.664Z,2.50
2019-01-10T07:34:57.841Z,3.10
2019-01-10T07:37:25.179Z,2.80
2019-01-10T07:39:53.214Z,2.23
2019-01-10T07:42:20.402Z,2.27
2019-01-10T07:44:47.457Z,2.23
2019-01-10T07:47:15.826Z,2.20
2019-01-10T07:49:42.695Z,2.00
2019-01-10T07:52:09.627Z,2.97
2019-01-10T07:54:36.879Z,2.17
2019-01-10T07:57:03.829Z,2.30
2019-01-10T07:59:30.742Z,2.27
2019-01-10T08:01:58.002Z,2.70
2019-01-10T08:04:25.016Z,2.50
2019-01-10T08:06:52.046Z,2.50
2019-01-10T08:09:18.869Z,2.60
2019-01-10T08:11:45.823Z,2.47
2019-01-10T08:14:12.667Z,2.50
2019-01-10T08:16:39.624Z,2.37
2019-01-10T08:19:06.689Z,2.53
2019-01-10T08:21:33.671Z,2.67
2019-01-10T08:24:00.487Z,2.67
2019-01-10T08:26:27.336Z,2.37
2019-01-10T08:28:54.496Z,2.30
2019-01-10T08:31:21.575Z,1.90
2019-01-10T08:33:48.438Z,2.10
2019-01-10T08:36:15.216Z,1.87
2019-01-10T08:38:42.121Z,2.20
2019-01-10T08:41:08.877Z,2.13
2019-01-10T08:43:35.706Z,2.23
2019-01-10T08:46:02.620Z,1.83
2019-01-10T08:48:29.655Z,1.97
2019-01-10T08:50:57.059Z,2.27
2019-01-10T08:53:24.048Z,1.80
2019-01-10T08:55:50.886Z,2.10
2019-01-10T08:58:17.746Z,2.17
2019-01-10T09:00:44.739Z,1.93
2019-01-10T09:03:11.610Z,1.93
2019-01-10T09:05:38.364Z,2.30
2019-01-10T09:08:05.276Z,1.70
2019-01-10T09:10:33.541Z,1.70
2019-01-10T09:13:01.489Z,1.93
2019-01-10T09:15:34.416Z,1.50
2019-01-10T09:17:58.189Z,1.63
2019-01-10T09:20:25.087Z,1.77
2019-01-10T09:22:52.853Z,2.10
2019-01-10T09:25:20.012Z,1.83
2019-01-10T09:27:46.869Z,1.67
2019-01-10T09:30:18.669Z,2.00
2019-01-10T09:32:45.524Z,1.60
2019-01-10T09:35:12.373Z,2.10
2019-01-10T09:37:39.287Z,1.63
2019-01-10T09:40:48.530Z,2.20
2019-01-10T09:43:15.752Z,2.00
2019-01-10T09:45:43.358Z,1.50
2019-01-10T09:48:11.590Z,1.70
2019-01-10T09:50:38.677Z,1.83
2019-01-10T09:53:05.828Z,2.30
2019-01-10T09:55:45.812Z,1.67
2019-01-10T09:58:12.572Z,1.80
2019-01-10T10:00:40.067Z,1.70
2019-01-10T10:03:07.654Z,2.20
2019-01-10T10:05:34.527Z,1.60
2019-01-10T10:08:01.396Z,1.73
2019-01-10T10:10:28.448Z,1.40
2019-01-10T10:12:55.367Z,1.80
2019-01-10T10:15:22.395Z,1.53
2019-01-10T10:17:49.309Z,1.77
2019-01-10T10:20:19.015Z,2.10
2019-01-10T10:22:45.873Z,2.00
2019-01-10T10:25:13.112Z,1.90
2019-01-10T10:27:39.967Z,1.73
2019-01-10T10:30:09.705Z,2.00
2019-01-10T10:32:36.683Z,2.10
2019-01-10T10:35:25.314Z,1.97
2019-01-10T10:37:52.303Z,1.80
2019-01-10T10:40:20.404Z,1.80
2019-01-10T10:42:47.449Z,1.90
2019-01-10T10:45:15.923Z,1.63
2019-01-10T10:47:43.005Z,1.90
2019-01-10T10:50:13.216Z,1.70
2019-01-10T10:52:40.151Z,1.90
2019-01-10T10:55:07.162Z,1.90
2019-01-10T10:57:34.080Z,1.90
2019-01-10T11:00:01.311Z,1.73
2019-01-10T11:02:28.597Z,1.70
2019-01-10T11:04:55.479Z,1.90
2019-01-10T11:07:22.622Z,1.50
2019-01-10T11:09:49.482Z,1.53
2019-01-10T11:12:16.414Z,1.40
2019-01-10T11:14:43.321Z,1.20
2019-01-10T11:17:10.217Z,1.40
2019-01-10T11:19:37.082Z,1.40
2019-01-10T11:22:04.204Z,1.40
2019-01-10T11:24:31.739Z,1.30
2019-01-10T11:26:58.911Z,1.67
2019-01-10T11:29:26.413Z,1.30
2019-01-10T11:31:53.432Z,1.57
2019-01-10T11:34:20.642Z,1.53
2019-01-10T11:36:47.580Z,1.77
2019-01-10T11:39:14.852Z,1.50
2019-01-10T11:41:41.630Z,1.60
2019-01-10T11:44:08.550Z,1.50
2019-01-10T11:46:35.923Z,1.30
2019-01-10T11:49:02.792Z,1.30
2019-01-10T11:51:29.920Z,1.70
2019-01-10T11:54:04.596Z,1.40
2019-01-10T11:56:31.505Z,1.63
2019-01-10T11:58:58.403Z,1.53
2019-01-10T12:04:20.386Z,1.97
2019-01-10T12:06:47.138Z,1.80
2019-01-10T12:09:13.897Z,1.63
2019-01-10T12:11:40.704Z,1.80
2019-01-10T12:14:07.606Z,1.40
2019-01-10T12:16:35.926Z,1.80
2019-01-10T12:19:02.954Z,1.40
2019-01-10T12:21:29.712Z,1.80
2019-01-10T12:23:56.915Z,1.50
2019-01-10T12:26:24.032Z,1.37
2019-01-10T12:28:51.065Z,1.20
2019-01-10T12:31:18.120Z,1.30
2019-01-10T12:33:45.718Z,1.20
2019-01-10T12:36:13.274Z,1.33
2019-01-10T12:38:40.294Z,1.37
2019-01-10T12:41:07.328Z,1.40
2019-01-10T12:43:34.381Z,1.50
2019-01-10T12:46:01.565Z,1.20
2019-01-10T12:48:29.001Z,1.40
2019-01-10T12:50:55.850Z,1.40
2019-01-10T12:53:23.116Z,1.57
2019-01-10T12:55:50.005Z,1.30
2019-01-10T12:58:16.766Z,1.77
2019-01-10T13:00:43.653Z,1.63
2019-01-10T13:03:10.477Z,1.67
2019-01-10T13:05:37.349Z,1.67
2019-01-10T13:08:04.202Z,1.10
2019-01-10T13:10:31.120Z,1.40
2019-01-10T13:12:58.677Z,1.10
2019-01-10T13:15:26.599Z,1.77
2019-01-10T13:17:54.234Z,1.27
2019-01-10T13:20:21.170Z,1.23
2019-01-10T13:22:48.147Z,1.30
2019-01-10T13:25:16.074Z,1.30
2019-01-10T13:28:24.203Z,1.23
2019-01-10T13:30:50.910Z,1.00
2019-01-10T13:33:17.884Z,1.50
2019-01-10T13:35:46.038Z,1.33
2019-01-10T13:38:13.850Z,1.37
2019-01-10T13:40:40.691Z,1.40
2019-01-10T13:43:08.093Z,1.50
2019-01-10T13:45:35.255Z,1.10
2019-01-10T13:48:02.504Z,1.20
2019-01-10T13:50:49.304Z,1.50
2019-01-10T13:53:16.066Z,1.30
2019-01-10T13:55:43.461Z,1.30
2019-01-10T13:58:10.737Z,0.90
2019-01-10T14:00:37.821Z,1.10
2019-01-10T14:03:04.927Z,1.00
2019-01-10T14:05:31.837Z,1.10
2019-01-10T14:07:58.583Z,1.00
2019-01-10T14:10:25.715Z,1.00
2019-01-10T14:12:53.141Z,1.10
2019-01-10T14:15:34.693Z,1.20
2019-01-10T14:18:03.603Z,1.20
2019-01-10T14:20:30.483Z,1.00
2019-01-10T14:22:58.744Z,0.97
2019-01-10T14:25:25.599Z,0.90
2019-01-10T14:27:59.347Z,0.97
2019-01-10T14:30:41.494Z,1.20
2019-01-10T14:33:28.105Z,1.20
2019-01-10T14:35:55.113Z,1.10
2019-01-10T14:38:22.596Z,1.40
2019-01-10T14:40:49.578Z,1.20
2019-01-10T14:43:16.393Z,1.10
2019-01-10T14:45:43.736Z,1.10
2019-01-10T14:48:10.574Z,1.00
2019-01-10T14:50:37.797Z,1.10
2019-01-10T14:53:46.548Z,1.40
2019-01-10T14:56:13.529Z,1.40
2019-01-10T14:58:40.406Z,1.73
2019-01-10T15:01:08.284Z,1.30
2019-01-10T15:03:35.379Z,1.30
2019-01-10T15:06:02.223Z,2.40
2019-01-10T15:08:28.979Z,1.70
2019-01-10T15:10:56.235Z,1.70
2019-01-10T15:13:23.090Z,1.60
2019-01-10T15:15:50.340Z,1.80
2019-01-10T15:18:17.432Z,1.80
2019-01-10T15:20:44.340Z,1.90
2019-01-10T15:23:11.282Z,2.80
2019-01-10T15:25:38.671Z,1.87
2019-01-10T15:28:05.583Z,1.03
2019-01-10T15:30:32.602Z,1.20
2019-01-10T15:32:59.639Z,1.10
2019-01-10T15:35:26.732Z,1.10
2019-01-10T15:37:54.548Z,0.93
2019-01-10T15:40:42.372Z,1.03
2019-01-10T15:43:09.097Z,1.17
2019-01-10T15:45:36.012Z,1.10
2019-01-10T15:48:03.572Z,1.00
2019-01-10T15:50:30.314Z,1.30
2019-01-10T15:52:57.147Z,1.23
2019-01-10T15:55:24.111Z,1.40
2019-01-10T15:57:51.134Z,1.27
2019-01-10T16:00:19.743Z,1.40
2019-01-10T16:02:46.680Z,1.23
2019-01-10T16:05:13.643Z,1.20
2019-01-10T16:07:40.870Z,1.10
2019-01-10T16:10:09.261Z,1.10
2019-01-10T16:12:36.448Z,1.20
2019-01-10T16:15:05.335Z,1.00
2019-01-10T16:17:32.544Z,1.30
2019-01-10T16:19:59.699Z,1.17
2019-01-10T16:22:26.522Z,5.67
2019-01-10T16:24:53.461Z,2.27
2019-01-10T16:27:20.846Z,1.50
2019-01-10T16:29:47.740Z,1.40
2019-01-10T16:32:14.560Z,1.43
2019-01-10T16:35:01.047Z,1.30
2019-01-10T16:37:27.987Z,1.23
2019-01-10T16:39:55.246Z,1.70
2019-01-10T16:42:22.105Z,1.67
2019-01-10T16:45:10.233Z,2.00
2019-01-10T16:47:36.879Z,1.87
2019-01-10T16:50:04.379Z,1.80
2019-01-10T16:52:31.861Z,1.80
2019-01-10T16:54:58.593Z,2.00
2019-01-10T16:57:25.431Z,2.40
2019-01-10T17:00:22.125Z,2.43
2019-01-10T17:02:49.149Z,2.50
2019-01-10T17:05:16.174Z,2.70
2019-01-10T17:07:43.433Z,2.73
2019-01-10T17:10:10.410Z,2.10
2019-01-10T17:12:37.231Z,1.70
2019-01-10T17:15:05.198Z,1.70
2019-01-10T17:17:37.569Z,1.63
2019-01-10T17:20:01.304Z,1.60
2019-01-10T17:22:28.499Z,1.43
2019-01-10T17:24:55.260Z,1.40
2019-01-10T17:27:22.646Z,1.90
2019-01-10T17:29:49.556Z,1.80
2019-01-10T17:32:16.326Z,1.93
2019-01-10T17:34:43.492Z,1.70
2019-01-10T17:37:10.274Z,1.63
2019-01-10T17:39:37.014Z,1.70
2019-01-10T17:44:58.817Z,1.70
2019-01-10T17:47:25.432Z,1.57
2019-01-10T17:49:52.717Z,1.60
2019-01-10T17:52:39.122Z,1.13
2019-01-10T17:55:06.234Z,1.90
2019-01-10T17:57:33.277Z,1.90
2019-01-10T18:00:00.225Z,1.67
2019-01-10T18:02:27.097Z,1.87
2019-01-10T18:04:53.958Z,1.27
2019-01-10T18:07:20.822Z,1.23
2019-01-10T18:10:00.694Z,1.40
2019-01-10T18:12:31.163Z,1.40
2019-01-10T18:14:57.931Z,1.53
2019-01-10T18:17:24.819Z,1.40
2019-01-10T18:23:10.458Z,1.37
2019-01-10T18:25:37.325Z,1.50
2019-01-10T18:28:04.571Z,1.53
2019-01-10T18:30:32.033Z,1.70
2019-01-10T18:32:58.931Z,1.50
2019-01-10T18:35:26.697Z,1.67
2019-01-10T18:37:54.733Z,2.00
2019-01-10T18:40:21.559Z,2.10
2019-01-10T18:42:48.385Z,2.50
2019-01-10T18:45:17.732Z,2.30
2019-01-10T18:47:45.157Z,2.30
2019-01-10T18:50:14.646Z,2.70
2019-01-10T18:52:41.553Z,2.90
2019-01-10T18:55:08.713Z,3.30
2019-01-10T18:57:35.551Z,3.40
2019-01-10T19:00:03.718Z,3.37
2019-01-10T19:02:30.766Z,3.20
2019-01-10T19:04:57.771Z,3.00
2019-01-10T19:10:04.403Z,2.80
2019-01-10T19:12:31.328Z,3.00
2019-01-10T19:14:58.158Z,3.33
2019-01-10T19:17:26.187Z,3.33
2019-01-10T19:19:54.510Z,3.70
2019-01-10T19:22:21.517Z,3.10
2019-01-10T19:24:48.409Z,2.83
2019-01-10T19:27:15.503Z,3.10
2019-01-10T19:29:42.629Z,2.90
2019-01-10T19:32:09.959Z,3.23
2019-01-10T19:34:36.700Z,3.63
2019-01-10T19:37:03.844Z,3.17
2019-01-10T19:39:31.125Z,3.10
2019-01-10T19:41:58.441Z,3.00
2019-01-10T19:44:25.901Z,2.90
2019-01-10T19:46:52.837Z,3.30
2019-01-10T19:49:19.715Z,3.10
2019-01-10T19:51:46.655Z,3.00
2019-01-10T19:54:13.592Z,3.33
2019-01-10T19:56:40.591Z,3.00
2019-01-10T19:59:09.614Z,3.30
2019-01-10T20:01:37.711Z,2.93
2019-01-10T20:04:05.422Z,2.77
2019-01-10T20:06:32.156Z,2.63
2019-01-10T20:08:59.015Z,2.60
2019-01-10T20:11:26.364Z,2.70
2019-01-10T20:13:53.563Z,2.93
2019-01-10T20:16:20.640Z,2.80
2019-01-10T20:18:47.653Z,2.67
2019-01-10T20:21:14.804Z,3.00
2019-01-10T20:23:41.905Z,2.90
2019-01-10T20:29:17.178Z,2.53
2019-01-10T20:31:43.903Z,2.60
2019-01-10T20:34:10.631Z,2.53
2019-01-10T20:36:37.439Z,2.57
2019-01-10T20:39:06.764Z,2.50
2019-01-10T20:41:33.731Z,2.40
2019-01-10T20:44:00.981Z,2.43
2019-01-10T20:46:28.046Z,2.60
2019-01-10T20:48:54.774Z,2.80
2019-01-10T20:51:21.855Z,2.60
2019-01-10T20:53:48.589Z,2.50
2019-01-10T20:56:15.857Z,3.10
2019-01-10T20:58:43.012Z,2.70
2019-01-10T21:01:09.945Z,2.13
2019-01-10T21:03:36.782Z,2.57
2019-01-10T21:06:03.868Z,2.70
2019-01-10T21:08:30.710Z,2.80
2019-01-10T21:10:57.439Z,2.63
2019-01-10T21:13:24.232Z,2.50
2019-01-10T21:15:54.744Z,2.60
2019-01-10T21:18:21.743Z,2.20
2019-01-10T21:20:48.908Z,2.60
2019-01-10T21:23:15.926Z,2.57
2019-01-10T21:25:42.745Z,2.50
2019-01-10T21:28:09.653Z,2.70
2019-01-10T21:30:36.482Z,2.80
2019-01-10T21:33:03.512Z,2.50
2019-01-10T21:35:30.382Z,2.73
2019-01-10T21:37:57.219Z,2.80
2019-01-10T21:40:24.055Z,2.80
2019-01-10T21:42:52.227Z,2.80
2019-01-10T21:45:19.097Z,2.77
2019-01-10T21:47:45.919Z,2.70
2019-01-10T21:50:35.256Z,2.90
2019-01-10T21:55:50.712Z,2.67
2019-01-10T21:58:17.569Z,3.03
2019-01-10T22:00:44.717Z,2.90
2019-01-10T22:03:12.199Z,2.70
2019-01-10T22:05:39.318Z,2.70
2019-01-10T22:08:07.988Z,2.80
2019-01-10T22:10:35.107Z,3.17
2019-01-10T22:13:02.416Z,3.00
2019-01-10T22:15:29.271Z,3.13
2019-01-10T22:18:09.051Z,3.00
2019-01-10T22:20:36.169Z,2.90
2019-01-10T22:23:03.061Z,2.60
2019-01-10T22:25:49.859Z,3.03
2019-01-10T22:28:16.600Z,2.83
2019-01-10T22:30:43.801Z,2.90
2019-01-10T22:33:10.587Z,2.80
2019-01-10T22:35:37.322Z,3.40
2019-01-10T22:38:04.167Z,3.47
2019-01-10T22:40:31.108Z,2.80
2019-01-10T22:42:58.299Z,3.10
2019-01-10T22:45:25.131Z,3.03
2019-01-10T22:47:52.154Z,3.37
2019-01-10T22:53:47.815Z,3.17
2019-01-10T22:56:14.562Z,2.60
2019-01-10T22:58:41.395Z,2.70
2019-01-10T23:01:49.063Z,3.07
2019-01-10T23:07:39.287Z,3.00
2019-01-10T23:10:25.957Z,2.30
2019-01-10T23:12:53.213Z,2.67
2019-01-10T23:15:39.730Z,3.03
2019-01-10T23:18:06.847Z,2.73
2019-01-10T23:20:36.331Z,2.57
2019-01-10T23:23:05.926Z,2.90
2019-01-10T23:25:32.839Z,2.70
2019-01-10T23:27:59.789Z,2.97
2019-01-10T23:30:48.011Z,2.90
2019-01-10T23:33:15.151Z,3.23
2019-01-10T23:35:42.418Z,3.20
2019-01-10T23:38:09.493Z,3.20
2019-01-10T23:40:37.457Z,2.97
2019-01-10T23:43:04.613Z,3.40
2019-01-10T23:45:31.620Z,3.60
2019-01-10T23:47:59.417Z,3.37
2019-01-10T23:50:26.428Z,3.00
2019-01-10T23:52:53.385Z,3.57
2019-01-10T23:55:20.235Z,3.20
2019-01-10T23:57:48.496Z,3.60
